sensor_id;sensor_type;location;lat;lon;timestamp;P1;durP1;ratioP1;P2;durP2;ratioP2
35693;SDS011;21812;55.536;37.664;2024-01-30T00:02:11;10.83;;;7.50;;
35693;SDS011;21812;55.536;37.664;2024-01-30T00:04:37;13.07;;;7.37;;
35693;SDS011;21812;55.536;37.664;2024-01-30T00:07:03;13.67;;;7.67;;
35693;SDS011;21812;55.536;37.664;2024-01-30T00:09:29;13.53;;;7.37;;
35693;SDS011;21812;55.536;37.664;2024-01-30T00:11:54;10.17;;;6.13;;
35693;SDS011;21812;55.536;37.664;2024-01-30T00:14:20;13.27;;;6.27;;
35693;SDS011;21812;55.536;37.664;2024-01-30T00:16:46;11.97;;;5.83;;
35693;SDS011;21812;55.536;37.664;2024-01-30T00:19:11;11.50;;;6.70;;
35693;SDS011;21812;55.536;37.664;2024-01-30T00:21:37;12.47;;;6.63;;
35693;SDS011;21812;55.536;37.664;2024-01-30T00:24:03;11.50;;;6.47;;
35693;SDS011;21812;55.536;37.664;2024-01-30T00:26:29;12.17;;;7.00;;
35693;SDS011;21812;55.536;37.664;2024-01-30T00:28:55;11.37;;;6.40;;
35693;SDS011;21812;55.536;37.664;2024-01-30T00:31:20;14.47;;;7.80;;
35693;SDS011;21812;55.536;37.664;2024-01-30T00:33:46;11.20;;;6.33;;
35693;SDS011;21812;55.536;37.664;2024-01-30T00:36:12;9.77;;;6.20;;
35693;SDS011;21812;55.536;37.664;2024-01-30T00:38:38;12.33;;;6.07;;
35693;SDS011;21812;55.536;37.664;2024-01-30T00:41:03;12.97;;;6.83;;
35693;SDS011;21812;55.536;37.664;2024-01-30T00:43:30;12.87;;;6.40;;
35693;SDS011;21812;55.536;37.664;2024-01-30T00:45:56;11.13;;;6.13;;
35693;SDS011;21812;55.536;37.664;2024-01-30T00:48:23;14.33;;;7.63;;
35693;SDS011;21812;55.536;37.664;2024-01-30T00:50:49;11.27;;;6.70;;
35693;SDS011;21812;55.536;37.664;2024-01-30T00:53:15;11.47;;;6.80;;
35693;SDS011;21812;55.536;37.664;2024-01-30T00:55:40;12.03;;;7.00;;
35693;SDS011;21812;55.536;37.664;2024-01-30T00:58:06;13.43;;;6.93;;
35693;SDS011;21812;55.536;37.664;2024-01-30T01:00:32;10.57;;;6.80;;
35693;SDS011;21812;55.536;37.664;2024-01-30T01:02:58;12.73;;;7.33;;
35693;SDS011;21812;55.536;37.664;2024-01-30T01:05:24;10.87;;;6.33;;
35693;SDS011;21812;55.536;37.664;2024-01-30T01:07:50;13.77;;;7.57;;
35693;SDS011;21812;55.536;37.664;2024-01-30T01:10:16;11.97;;;7.20;;
35693;SDS011;21812;55.536;37.664;2024-01-30T01:12:44;11.33;;;6.53;;
35693;SDS011;21812;55.536;37.664;2024-01-30T01:15:11;12.50;;;7.70;;
35693;SDS011;21812;55.536;37.664;2024-01-30T01:17:40;10.17;;;6.00;;
35693;SDS011;21812;55.536;37.664;2024-01-30T01:20:06;14.23;;;7.90;;
35693;SDS011;21812;55.536;37.664;2024-01-30T01:22:33;12.73;;;7.33;;
35693;SDS011;21812;55.536;37.664;2024-01-30T01:25:00;10.40;;;6.10;;
35693;SDS011;21812;55.536;37.664;2024-01-30T01:27:26;13.33;;;6.40;;
35693;SDS011;21812;55.536;37.664;2024-01-30T01:29:52;11.40;;;6.20;;
35693;SDS011;21812;55.536;37.664;2024-01-30T01:32:18;13.30;;;7.30;;
35693;SDS011;21812;55.536;37.664;2024-01-30T01:34:45;11.23;;;6.83;;
35693;SDS011;21812;55.536;37.664;2024-01-30T01:37:11;9.60;;;6.40;;
35693;SDS011;21812;55.536;37.664;2024-01-30T01:39:37;10.93;;;6.30;;
35693;SDS011;21812;55.536;37.664;2024-01-30T01:42:02;9.30;;;5.73;;
35693;SDS011;21812;55.536;37.664;2024-01-30T01:44:28;11.00;;;5.93;;
35693;SDS011;21812;55.536;37.664;2024-01-30T01:46:54;9.67;;;5.93;;
35693;SDS011;21812;55.536;37.664;2024-01-30T01:49:24;11.40;;;6.37;;
35693;SDS011;21812;55.536;37.664;2024-01-30T01:51:50;9.53;;;5.90;;
35693;SDS011;21812;55.536;37.664;2024-01-30T01:54:19;10.77;;;6.47;;
35693;SDS011;21812;55.536;37.664;2024-01-30T01:56:45;12.67;;;6.20;;
35693;SDS011;21812;55.536;37.664;2024-01-30T01:59:11;9.60;;;5.63;;
35693;SDS011;21812;55.536;37.664;2024-01-30T02:01:37;11.73;;;6.67;;
35693;SDS011;21812;55.536;37.664;2024-01-30T02:04:04;8.70;;;5.90;;
35693;SDS011;21812;55.536;37.664;2024-01-30T02:06:30;9.73;;;5.60;;
35693;SDS011;21812;55.536;37.664;2024-01-30T02:08:57;9.63;;;5.30;;
35693;SDS011;21812;55.536;37.664;2024-01-30T02:11:22;11.97;;;8.10;;
35693;SDS011;21812;55.536;37.664;2024-01-30T02:13:50;10.30;;;6.20;;
35693;SDS011;21812;55.536;37.664;2024-01-30T02:16:16;12.73;;;6.30;;
35693;SDS011;21812;55.536;37.664;2024-01-30T02:18:43;11.37;;;6.10;;
35693;SDS011;21812;55.536;37.664;2024-01-30T02:21:32;10.90;;;5.33;;
35693;SDS011;21812;55.536;37.664;2024-01-30T02:23:58;10.87;;;6.60;;
35693;SDS011;21812;55.536;37.664;2024-01-30T02:26:25;11.10;;;6.27;;
35693;SDS011;21812;55.536;37.664;2024-01-30T02:28:50;10.00;;;5.73;;
35693;SDS011;21812;55.536;37.664;2024-01-30T02:31:16;10.07;;;5.97;;
35693;SDS011;21812;55.536;37.664;2024-01-30T02:33:42;11.30;;;6.93;;
35693;SDS011;21812;55.536;37.664;2024-01-30T02:36:07;10.63;;;5.93;;
35693;SDS011;21812;55.536;37.664;2024-01-30T02:38:33;11.60;;;6.30;;
35693;SDS011;21812;55.536;37.664;2024-01-30T02:40:59;12.30;;;6.90;;
35693;SDS011;21812;55.536;37.664;2024-01-30T02:43:25;11.87;;;6.50;;
35693;SDS011;21812;55.536;37.664;2024-01-30T02:45:50;10.53;;;5.90;;
35693;SDS011;21812;55.536;37.664;2024-01-30T02:48:16;10.37;;;6.13;;
35693;SDS011;21812;55.536;37.664;2024-01-30T02:50:42;9.77;;;6.30;;
35693;SDS011;21812;55.536;37.664;2024-01-30T02:53:08;11.27;;;6.83;;
35693;SDS011;21812;55.536;37.664;2024-01-30T02:55:33;12.47;;;6.37;;
35693;SDS011;21812;55.536;37.664;2024-01-30T02:57:59;13.10;;;6.77;;
35693;SDS011;21812;55.536;37.664;2024-01-30T03:00:25;11.57;;;6.83;;
35693;SDS011;21812;55.536;37.664;2024-01-30T03:02:50;9.93;;;5.87;;
35693;SDS011;21812;55.536;37.664;2024-01-30T03:05:16;13.70;;;6.83;;
35693;SDS011;21812;55.536;37.664;2024-01-30T03:07:42;10.53;;;6.00;;
35693;SDS011;21812;55.536;37.664;2024-01-30T03:10:08;12.17;;;6.47;;
35693;SDS011;21812;55.536;37.664;2024-01-30T03:12:33;9.37;;;6.77;;
35693;SDS011;21812;55.536;37.664;2024-01-30T03:14:59;10.10;;;6.47;;
35693;SDS011;21812;55.536;37.664;2024-01-30T03:17:25;12.40;;;6.77;;
35693;SDS011;21812;55.536;37.664;2024-01-30T03:19:51;10.17;;;6.67;;
35693;SDS011;21812;55.536;37.664;2024-01-30T03:22:17;8.67;;;5.40;;
35693;SDS011;21812;55.536;37.664;2024-01-30T03:24:43;11.37;;;5.97;;
35693;SDS011;21812;55.536;37.664;2024-01-30T03:27:09;10.70;;;6.67;;
35693;SDS011;21812;55.536;37.664;2024-01-30T03:29:35;13.27;;;6.93;;
35693;SDS011;21812;55.536;37.664;2024-01-30T03:32:01;12.77;;;6.80;;
35693;SDS011;21812;55.536;37.664;2024-01-30T03:34:26;11.53;;;6.17;;
35693;SDS011;21812;55.536;37.664;2024-01-30T03:36:52;10.37;;;7.63;;
35693;SDS011;21812;55.536;37.664;2024-01-30T03:39:18;8.80;;;5.40;;
35693;SDS011;21812;55.536;37.664;2024-01-30T03:41:43;8.57;;;6.13;;
35693;SDS011;21812;55.536;37.664;2024-01-30T03:44:10;11.90;;;6.97;;
35693;SDS011;21812;55.536;37.664;2024-01-30T03:46:36;12.73;;;7.83;;
35693;SDS011;21812;55.536;37.664;2024-01-30T03:49:02;15.63;;;7.43;;
35693;SDS011;21812;55.536;37.664;2024-01-30T03:51:28;11.57;;;7.33;;
35693;SDS011;21812;55.536;37.664;2024-01-30T03:53:55;10.50;;;6.10;;
35693;SDS011;21812;55.536;37.664;2024-01-30T03:56:21;11.40;;;6.53;;
35693;SDS011;21812;55.536;37.664;2024-01-30T03:58:47;13.70;;;6.20;;
35693;SDS011;21812;55.536;37.664;2024-01-30T04:01:13;11.47;;;6.80;;
35693;SDS011;21812;55.536;37.664;2024-01-30T04:03:40;8.30;;;5.20;;
35693;SDS011;21812;55.536;37.664;2024-01-30T04:06:07;9.80;;;6.60;;
35693;SDS011;21812;55.536;37.664;2024-01-30T04:08:33;10.37;;;6.60;;
35693;SDS011;21812;55.536;37.664;2024-01-30T04:11:03;14.53;;;6.87;;
35693;SDS011;21812;55.536;37.664;2024-01-30T04:13:31;10.07;;;6.47;;
35693;SDS011;21812;55.536;37.664;2024-01-30T04:15:58;10.53;;;6.37;;
35693;SDS011;21812;55.536;37.664;2024-01-30T04:18:27;13.03;;;6.43;;
35693;SDS011;21812;55.536;37.664;2024-01-30T04:20:52;7.83;;;5.37;;
35693;SDS011;21812;55.536;37.664;2024-01-30T04:23:18;9.27;;;6.43;;
35693;SDS011;21812;55.536;37.664;2024-01-30T04:25:44;12.80;;;6.73;;
35693;SDS011;21812;55.536;37.664;2024-01-30T04:28:10;14.90;;;6.97;;
35693;SDS011;21812;55.536;37.664;2024-01-30T04:30:37;11.80;;;6.77;;
35693;SDS011;21812;55.536;37.664;2024-01-30T04:33:03;10.47;;;6.53;;
35693;SDS011;21812;55.536;37.664;2024-01-30T04:35:29;11.07;;;6.30;;
35693;SDS011;21812;55.536;37.664;2024-01-30T04:37:55;11.97;;;7.23;;
35693;SDS011;21812;55.536;37.664;2024-01-30T04:40:21;11.20;;;7.00;;
35693;SDS011;21812;55.536;37.664;2024-01-30T04:42:47;10.30;;;6.17;;
35693;SDS011;21812;55.536;37.664;2024-01-30T04:45:12;12.03;;;7.67;;
35693;SDS011;21812;55.536;37.664;2024-01-30T04:47:38;8.33;;;5.07;;
35693;SDS011;21812;55.536;37.664;2024-01-30T04:50:05;11.95;;;7.20;;
35693;SDS011;21812;55.536;37.664;2024-01-30T04:52:33;8.70;;;6.30;;
35693;SDS011;21812;55.536;37.664;2024-01-30T04:54:59;9.15;;;6.30;;
35693;SDS011;21812;55.536;37.664;2024-01-30T04:57:25;10.23;;;6.28;;
35693;SDS011;21812;55.536;37.664;2024-01-30T04:59:50;11.13;;;6.53;;
35693;SDS011;21812;55.536;37.664;2024-01-30T05:02:16;9.90;;;6.20;;
35693;SDS011;21812;55.536;37.664;2024-01-30T05:04:42;10.53;;;6.93;;
35693;SDS011;21812;55.536;37.664;2024-01-30T05:07:07;10.73;;;6.03;;
35693;SDS011;21812;55.536;37.664;2024-01-30T05:09:33;11.07;;;6.53;;
35693;SDS011;21812;55.536;37.664;2024-01-30T05:11:59;9.70;;;5.43;;
35693;SDS011;21812;55.536;37.664;2024-01-30T05:14:24;10.67;;;6.63;;
35693;SDS011;21812;55.536;37.664;2024-01-30T05:16:50;9.90;;;6.27;;
35693;SDS011;21812;55.536;37.664;2024-01-30T05:19:16;10.53;;;6.70;;
35693;SDS011;21812;55.536;37.664;2024-01-30T05:21:42;9.87;;;6.57;;
35693;SDS011;21812;55.536;37.664;2024-01-30T05:24:08;9.00;;;6.07;;
35693;SDS011;21812;55.536;37.664;2024-01-30T05:26:35;9.88;;;6.53;;
35693;SDS011;21812;55.536;37.664;2024-01-30T05:29:01;8.65;;;5.95;;
35693;SDS011;21812;55.536;37.664;2024-01-30T05:31:27;10.65;;;6.97;;
35693;SDS011;21812;55.536;37.664;2024-01-30T05:33:54;8.53;;;5.57;;
35693;SDS011;21812;55.536;37.664;2024-01-30T05:36:20;9.97;;;6.00;;
35693;SDS011;21812;55.536;37.664;2024-01-30T05:38:47;10.97;;;6.93;;
35693;SDS011;21812;55.536;37.664;2024-01-30T05:41:12;7.72;;;5.68;;
35693;SDS011;21812;55.536;37.664;2024-01-30T05:43:38;9.40;;;5.97;;
35693;SDS011;21812;55.536;37.664;2024-01-30T05:46:04;10.17;;;6.37;;
35693;SDS011;21812;55.536;37.664;2024-01-30T05:48:29;9.23;;;6.30;;
35693;SDS011;21812;55.536;37.664;2024-01-30T05:50:56;8.25;;;5.20;;
35693;SDS011;21812;55.536;37.664;2024-01-30T05:53:22;8.63;;;5.38;;
35693;SDS011;21812;55.536;37.664;2024-01-30T05:55:47;10.98;;;6.28;;
35693;SDS011;21812;55.536;37.664;2024-01-30T05:58:13;10.73;;;6.05;;
35693;SDS011;21812;55.536;37.664;2024-01-30T06:00:38;10.73;;;5.60;;
35693;SDS011;21812;55.536;37.664;2024-01-30T06:03:04;9.10;;;5.72;;
35693;SDS011;21812;55.536;37.664;2024-01-30T06:05:30;9.90;;;5.93;;
35693;SDS011;21812;55.536;37.664;2024-01-30T06:07:55;6.93;;;5.43;;
35693;SDS011;21812;55.536;37.664;2024-01-30T06:10:21;9.40;;;5.60;;
35693;SDS011;21812;55.536;37.664;2024-01-30T06:12:47;10.57;;;6.60;;
35693;SDS011;21812;55.536;37.664;2024-01-30T06:15:13;10.33;;;5.40;;
35693;SDS011;21812;55.536;37.664;2024-01-30T06:17:39;8.67;;;6.20;;
35693;SDS011;21812;55.536;37.664;2024-01-30T06:20:05;10.70;;;6.33;;
35693;SDS011;21812;55.536;37.664;2024-01-30T06:22:31;9.17;;;5.70;;
35693;SDS011;21812;55.536;37.664;2024-01-30T06:24:57;12.33;;;5.33;;
35693;SDS011;21812;55.536;37.664;2024-01-30T06:27:23;14.97;;;7.27;;
35693;SDS011;21812;55.536;37.664;2024-01-30T06:29:49;12.40;;;6.70;;
35693;SDS011;21812;55.536;37.664;2024-01-30T06:32:15;10.50;;;6.23;;
35693;SDS011;21812;55.536;37.664;2024-01-30T06:34:41;9.60;;;6.67;;
35693;SDS011;21812;55.536;37.664;2024-01-30T06:37:08;13.02;;;5.90;;
35693;SDS011;21812;55.536;37.664;2024-01-30T06:39:34;10.00;;;5.90;;
35693;SDS011;21812;55.536;37.664;2024-01-30T06:42:00;11.82;;;5.88;;
35693;SDS011;21812;55.536;37.664;2024-01-30T06:44:25;9.45;;;6.78;;
35693;SDS011;21812;55.536;37.664;2024-01-30T06:46:51;11.67;;;6.07;;
35693;SDS011;21812;55.536;37.664;2024-01-30T06:49:17;12.00;;;6.47;;
35693;SDS011;21812;55.536;37.664;2024-01-30T06:51:43;14.57;;;6.27;;
35693;SDS011;21812;55.536;37.664;2024-01-30T06:54:08;11.30;;;5.57;;
35693;SDS011;21812;55.536;37.664;2024-01-30T06:56:34;14.73;;;7.17;;
35693;SDS011;21812;55.536;37.664;2024-01-30T06:59:01;14.18;;;7.10;;
35693;SDS011;21812;55.536;37.664;2024-01-30T07:01:29;11.10;;;6.55;;
35693;SDS011;21812;55.536;37.664;2024-01-30T07:03:55;8.48;;;5.82;;
35693;SDS011;21812;55.536;37.664;2024-01-30T07:06:21;8.77;;;5.57;;
35693;SDS011;21812;55.536;37.664;2024-01-30T07:08:48;9.57;;;6.25;;
35693;SDS011;21812;55.536;37.664;2024-01-30T07:11:18;10.52;;;7.15;;
35693;SDS011;21812;55.536;37.664;2024-01-30T07:13:45;15.43;;;5.82;;
35693;SDS011;21812;55.536;37.664;2024-01-30T07:16:12;9.95;;;7.22;;
35693;SDS011;21812;55.536;37.664;2024-01-30T07:18:38;10.55;;;5.38;;
35693;SDS011;21812;55.536;37.664;2024-01-30T07:21:03;10.77;;;6.97;;
35693;SDS011;21812;55.536;37.664;2024-01-30T07:23:30;11.48;;;5.93;;
35693;SDS011;21812;55.536;37.664;2024-01-30T07:25:55;12.82;;;5.72;;
35693;SDS011;21812;55.536;37.664;2024-01-30T07:28:21;8.68;;;5.78;;
35693;SDS011;21812;55.536;37.664;2024-01-30T07:30:47;12.18;;;6.53;;
35693;SDS011;21812;55.536;37.664;2024-01-30T07:33:13;12.23;;;7.80;;
35693;SDS011;21812;55.536;37.664;2024-01-30T07:35:39;10.25;;;6.32;;
35693;SDS011;21812;55.536;37.664;2024-01-30T07:38:05;9.95;;;5.57;;
35693;SDS011;21812;55.536;37.664;2024-01-30T07:40:30;10.75;;;5.78;;
35693;SDS011;21812;55.536;37.664;2024-01-30T07:42:58;10.77;;;6.18;;
35693;SDS011;21812;55.536;37.664;2024-01-30T07:45:24;10.23;;;6.13;;
35693;SDS011;21812;55.536;37.664;2024-01-30T07:47:52;8.23;;;5.50;;
35693;SDS011;21812;55.536;37.664;2024-01-30T07:50:18;12.23;;;6.32;;
35693;SDS011;21812;55.536;37.664;2024-01-30T07:52:44;9.32;;;6.07;;
35693;SDS011;21812;55.536;37.664;2024-01-30T07:58:28;17.98;;;6.32;;
35693;SDS011;21812;55.536;37.664;2024-01-30T08:00:54;9.32;;;6.18;;
35693;SDS011;21812;55.536;37.664;2024-01-30T08:03:22;11.13;;;7.32;;
35693;SDS011;21812;55.536;37.664;2024-01-30T08:05:48;15.18;;;7.40;;
35693;SDS011;21812;55.536;37.664;2024-01-30T08:08:13;16.35;;;7.35;;
35693;SDS011;21812;55.536;37.664;2024-01-30T08:10:39;12.40;;;7.03;;
35693;SDS011;21812;55.536;37.664;2024-01-30T08:13:05;8.63;;;5.63;;
35693;SDS011;21812;55.536;37.664;2024-01-30T08:15:30;12.65;;;6.32;;
35693;SDS011;21812;55.536;37.664;2024-01-30T08:17:56;12.57;;;6.82;;
35693;SDS011;21812;55.536;37.664;2024-01-30T08:20:24;11.50;;;6.68;;
35693;SDS011;21812;55.536;37.664;2024-01-30T08:22:51;17.15;;;7.10;;
35693;SDS011;21812;55.536;37.664;2024-01-30T08:25:17;14.27;;;7.47;;
35693;SDS011;21812;55.536;37.664;2024-01-30T08:27:44;14.90;;;7.40;;
35693;SDS011;21812;55.536;37.664;2024-01-30T08:30:10;10.68;;;6.13;;
35693;SDS011;21812;55.536;37.664;2024-01-30T08:32:36;13.20;;;7.20;;
35693;SDS011;21812;55.536;37.664;2024-01-30T08:35:02;10.15;;;6.53;;
35693;SDS011;21812;55.536;37.664;2024-01-30T08:37:31;19.42;;;7.38;;
35693;SDS011;21812;55.536;37.664;2024-01-30T08:39:56;14.43;;;7.32;;
35693;SDS011;21812;55.536;37.664;2024-01-30T08:42:22;11.32;;;6.68;;
35693;SDS011;21812;55.536;37.664;2024-01-30T08:44:48;15.23;;;6.85;;
35693;SDS011;21812;55.536;37.664;2024-01-30T08:47:17;11.82;;;6.82;;
35693;SDS011;21812;55.536;37.664;2024-01-30T08:49:44;13.80;;;8.50;;
35693;SDS011;21812;55.536;37.664;2024-01-30T08:52:30;12.70;;;7.07;;
35693;SDS011;21812;55.536;37.664;2024-01-30T08:54:56;13.98;;;6.90;;
35693;SDS011;21812;55.536;37.664;2024-01-30T08:57:22;14.68;;;7.45;;
35693;SDS011;21812;55.536;37.664;2024-01-30T08:59:48;12.60;;;7.30;;
35693;SDS011;21812;55.536;37.664;2024-01-30T09:02:13;12.63;;;7.40;;
35693;SDS011;21812;55.536;37.664;2024-01-30T09:04:41;12.40;;;6.88;;
35693;SDS011;21812;55.536;37.664;2024-01-30T09:07:08;12.77;;;6.93;;
35693;SDS011;21812;55.536;37.664;2024-01-30T09:09:34;32.47;;;9.95;;
35693;SDS011;21812;55.536;37.664;2024-01-30T09:12:00;13.70;;;7.53;;
35693;SDS011;21812;55.536;37.664;2024-01-30T09:14:32;12.32;;;7.35;;
35693;SDS011;21812;55.536;37.664;2024-01-30T09:16:58;16.63;;;7.47;;
35693;SDS011;21812;55.536;37.664;2024-01-30T09:19:23;11.82;;;6.78;;
35693;SDS011;21812;55.536;37.664;2024-01-30T09:21:49;11.98;;;6.95;;
35693;SDS011;21812;55.536;37.664;2024-01-30T09:24:15;22.48;;;9.60;;
35693;SDS011;21812;55.536;37.664;2024-01-30T09:26:40;18.80;;;9.73;;
35693;SDS011;21812;55.536;37.664;2024-01-30T09:29:06;17.55;;;9.27;;
35693;SDS011;21812;55.536;37.664;2024-01-30T09:31:32;15.07;;;7.30;;
35693;SDS011;21812;55.536;37.664;2024-01-30T09:33:57;13.73;;;7.68;;
35693;SDS011;21812;55.536;37.664;2024-01-30T09:36:23;12.00;;;7.03;;
35693;SDS011;21812;55.536;37.664;2024-01-30T09:38:49;13.50;;;7.45;;
35693;SDS011;21812;55.536;37.664;2024-01-30T09:41:15;15.75;;;7.53;;
35693;SDS011;21812;55.536;37.664;2024-01-30T09:43:40;14.55;;;8.23;;
35693;SDS011;21812;55.536;37.664;2024-01-30T09:46:13;16.25;;;8.45;;
35693;SDS011;21812;55.536;37.664;2024-01-30T09:48:41;14.45;;;7.63;;
35693;SDS011;21812;55.536;37.664;2024-01-30T09:51:09;13.15;;;8.00;;
35693;SDS011;21812;55.536;37.664;2024-01-30T09:53:36;15.23;;;7.53;;
35693;SDS011;21812;55.536;37.664;2024-01-30T09:56:02;15.05;;;8.70;;
35693;SDS011;21812;55.536;37.664;2024-01-30T09:58:29;11.40;;;7.45;;
35693;SDS011;21812;55.536;37.664;2024-01-30T10:00:55;13.30;;;8.57;;
35693;SDS011;21812;55.536;37.664;2024-01-30T10:03:20;13.23;;;7.78;;
35693;SDS011;21812;55.536;37.664;2024-01-30T10:05:50;12.57;;;7.25;;
35693;SDS011;21812;55.536;37.664;2024-01-30T10:08:20;12.85;;;8.38;;
35693;SDS011;21812;55.536;37.664;2024-01-30T10:10:49;12.85;;;7.63;;
35693;SDS011;21812;55.536;37.664;2024-01-30T10:13:16;10.77;;;7.43;;
35693;SDS011;21812;55.536;37.664;2024-01-30T10:15:42;25.70;;;8.13;;
35693;SDS011;21812;55.536;37.664;2024-01-30T10:18:10;14.25;;;7.75;;
35693;SDS011;21812;55.536;37.664;2024-01-30T10:20:36;16.05;;;7.93;;
35693;SDS011;21812;55.536;37.664;2024-01-30T10:23:03;14.55;;;7.93;;
35693;SDS011;21812;55.536;37.664;2024-01-30T10:25:33;13.82;;;7.93;;
35693;SDS011;21812;55.536;37.664;2024-01-30T10:27:59;11.55;;;6.35;;
35693;SDS011;21812;55.536;37.664;2024-01-30T10:30:27;14.32;;;8.35;;
35693;SDS011;21812;55.536;37.664;2024-01-30T10:32:53;19.42;;;9.00;;
35693;SDS011;21812;55.536;37.664;2024-01-30T10:35:19;22.10;;;10.98;;
35693;SDS011;21812;55.536;37.664;2024-01-30T10:37:46;17.88;;;9.00;;
35693;SDS011;21812;55.536;37.664;2024-01-30T10:40:13;23.98;;;12.38;;
35693;SDS011;21812;55.536;37.664;2024-01-30T10:42:44;17.85;;;10.75;;
35693;SDS011;21812;55.536;37.664;2024-01-30T10:45:14;19.92;;;10.70;;
35693;SDS011;21812;55.536;37.664;2024-01-30T10:47:53;13.00;;;8.83;;
35693;SDS011;21812;55.536;37.664;2024-01-30T10:50:24;18.60;;;10.13;;
35693;SDS011;21812;55.536;37.664;2024-01-30T10:52:50;16.40;;;9.20;;
35693;SDS011;21812;55.536;37.664;2024-01-30T10:55:17;13.43;;;8.07;;
35693;SDS011;21812;55.536;37.664;2024-01-30T10:57:43;13.75;;;8.40;;
35693;SDS011;21812;55.536;37.664;2024-01-30T11:00:14;14.30;;;9.15;;
35693;SDS011;21812;55.536;37.664;2024-01-30T11:02:43;16.40;;;9.02;;
35693;SDS011;21812;55.536;37.664;2024-01-30T11:05:10;15.77;;;9.20;;
35693;SDS011;21812;55.536;37.664;2024-01-30T11:07:38;13.05;;;7.88;;
35693;SDS011;21812;55.536;37.664;2024-01-30T11:10:05;17.42;;;9.32;;
35693;SDS011;21812;55.536;37.664;2024-01-30T11:12:37;17.75;;;8.95;;
35693;SDS011;21812;55.536;37.664;2024-01-30T11:15:10;13.27;;;8.00;;
35693;SDS011;21812;55.536;37.664;2024-01-30T11:20:20;16.60;;;8.55;;
35693;SDS011;21812;55.536;37.664;2024-01-30T11:22:50;13.23;;;7.50;;
35693;SDS011;21812;55.536;37.664;2024-01-30T11:25:17;17.33;;;8.38;;
35693;SDS011;21812;55.536;37.664;2024-01-30T11:27:46;18.33;;;9.95;;
35693;SDS011;21812;55.536;37.664;2024-01-30T11:35:25;16.27;;;7.30;;
35693;SDS011;21812;55.536;37.664;2024-01-30T11:37:51;11.52;;;8.23;;
35693;SDS011;21812;55.536;37.664;2024-01-30T11:40:19;13.98;;;7.65;;
35693;SDS011;21812;55.536;37.664;2024-01-30T11:42:45;12.88;;;8.38;;
35693;SDS011;21812;55.536;37.664;2024-01-30T11:45:12;12.15;;;7.22;;
35693;SDS011;21812;55.536;37.664;2024-01-30T11:47:38;17.60;;;8.77;;
35693;SDS011;21812;55.536;37.664;2024-01-30T11:50:04;15.07;;;7.97;;
35693;SDS011;21812;55.536;37.664;2024-01-30T11:52:34;14.85;;;8.63;;
35693;SDS011;21812;55.536;37.664;2024-01-30T11:55:00;20.05;;;8.70;;
35693;SDS011;21812;55.536;37.664;2024-01-30T11:57:27;10.70;;;7.72;;
35693;SDS011;21812;55.536;37.664;2024-01-30T11:59:52;16.05;;;9.98;;
35693;SDS011;21812;55.536;37.664;2024-01-30T12:02:18;16.73;;;9.77;;
35693;SDS011;21812;55.536;37.664;2024-01-30T12:04:44;20.42;;;9.15;;
35693;SDS011;21812;55.536;37.664;2024-01-30T12:07:10;13.32;;;8.20;;
35693;SDS011;21812;55.536;37.664;2024-01-30T12:09:36;16.65;;;8.95;;
35693;SDS011;21812;55.536;37.664;2024-01-30T12:12:02;16.70;;;9.05;;
35693;SDS011;21812;55.536;37.664;2024-01-30T12:14:28;17.25;;;8.15;;
35693;SDS011;21812;55.536;37.664;2024-01-30T12:16:54;22.80;;;13.52;;
35693;SDS011;21812;55.536;37.664;2024-01-30T12:19:26;17.92;;;9.98;;
35693;SDS011;21812;55.536;37.664;2024-01-30T12:21:56;22.52;;;13.57;;
35693;SDS011;21812;55.536;37.664;2024-01-30T12:24:27;20.20;;;11.27;;
35693;SDS011;21812;55.536;37.664;2024-01-30T12:26:58;16.73;;;8.27;;
35693;SDS011;21812;55.536;37.664;2024-01-30T12:29:25;16.83;;;9.27;;
35693;SDS011;21812;55.536;37.664;2024-01-30T12:31:54;16.13;;;8.60;;
35693;SDS011;21812;55.536;37.664;2024-01-30T12:34:20;14.55;;;9.15;;
35693;SDS011;21812;55.536;37.664;2024-01-30T12:36:47;17.05;;;9.63;;
35693;SDS011;21812;55.536;37.664;2024-01-30T12:39:14;21.80;;;9.65;;
35693;SDS011;21812;55.536;37.664;2024-01-30T12:41:40;22.08;;;9.80;;
35693;SDS011;21812;55.536;37.664;2024-01-30T12:44:06;16.45;;;9.85;;
35693;SDS011;21812;55.536;37.664;2024-01-30T12:46:34;15.18;;;7.60;;
35693;SDS011;21812;55.536;37.664;2024-01-30T12:49:00;12.82;;;8.30;;
35693;SDS011;21812;55.536;37.664;2024-01-30T12:51:25;16.30;;;8.00;;
35693;SDS011;21812;55.536;37.664;2024-01-30T12:53:51;14.82;;;8.90;;
35693;SDS011;21812;55.536;37.664;2024-01-30T12:56:17;16.48;;;8.90;;
35693;SDS011;21812;55.536;37.664;2024-01-30T12:58:43;14.82;;;9.30;;
35693;SDS011;21812;55.536;37.664;2024-01-30T13:01:09;18.00;;;8.48;;
35693;SDS011;21812;55.536;37.664;2024-01-30T13:03:35;14.40;;;8.57;;
35693;SDS011;21812;55.536;37.664;2024-01-30T13:06:01;14.15;;;8.50;;
35693;SDS011;21812;55.536;37.664;2024-01-30T13:08:28;14.32;;;8.27;;
35693;SDS011;21812;55.536;37.664;2024-01-30T13:10:53;17.05;;;8.88;;
35693;SDS011;21812;55.536;37.664;2024-01-30T13:13:19;14.65;;;8.75;;
35693;SDS011;21812;55.536;37.664;2024-01-30T13:15:45;14.63;;;7.45;;
35693;SDS011;21812;55.536;37.664;2024-01-30T13:18:10;14.95;;;9.30;;
35693;SDS011;21812;55.536;37.664;2024-01-30T13:20:36;29.73;;;16.52;;
35693;SDS011;21812;55.536;37.664;2024-01-30T13:23:02;26.58;;;14.00;;
35693;SDS011;21812;55.536;37.664;2024-01-30T13:25:28;20.05;;;11.70;;
35693;SDS011;21812;55.536;37.664;2024-01-30T13:27:53;15.95;;;9.73;;
35693;SDS011;21812;55.536;37.664;2024-01-30T13:30:19;17.77;;;9.57;;
35693;SDS011;21812;55.536;37.664;2024-01-30T13:32:45;15.45;;;8.85;;
35693;SDS011;21812;55.536;37.664;2024-01-30T13:35:11;17.17;;;8.70;;
35693;SDS011;21812;55.536;37.664;2024-01-30T13:37:37;17.13;;;9.65;;
35693;SDS011;21812;55.536;37.664;2024-01-30T13:40:04;21.05;;;9.55;;
35693;SDS011;21812;55.536;37.664;2024-01-30T13:42:32;19.90;;;9.18;;
35693;SDS011;21812;55.536;37.664;2024-01-30T13:44:58;17.63;;;8.48;;
35693;SDS011;21812;55.536;37.664;2024-01-30T13:47:24;14.98;;;10.73;;
35693;SDS011;21812;55.536;37.664;2024-01-30T13:49:50;14.13;;;9.30;;
35693;SDS011;21812;55.536;37.664;2024-01-30T13:52:17;18.00;;;9.88;;
35693;SDS011;21812;55.536;37.664;2024-01-30T13:54:44;14.70;;;8.93;;
35693;SDS011;21812;55.536;37.664;2024-01-30T13:57:09;18.05;;;11.88;;
35693;SDS011;21812;55.536;37.664;2024-01-30T13:59:37;18.80;;;10.15;;
35693;SDS011;21812;55.536;37.664;2024-01-30T14:02:03;20.33;;;10.00;;
35693;SDS011;21812;55.536;37.664;2024-01-30T14:04:29;16.55;;;9.38;;
35693;SDS011;21812;55.536;37.664;2024-01-30T14:06:54;19.13;;;10.95;;
35693;SDS011;21812;55.536;37.664;2024-01-30T14:09:20;14.60;;;8.55;;
35693;SDS011;21812;55.536;37.664;2024-01-30T14:11:46;14.15;;;8.65;;
35693;SDS011;21812;55.536;37.664;2024-01-30T14:14:12;23.40;;;10.38;;
35693;SDS011;21812;55.536;37.664;2024-01-30T14:16:38;15.85;;;9.25;;
35693;SDS011;21812;55.536;37.664;2024-01-30T14:19:22;22.02;;;9.32;;
35693;SDS011;21812;55.536;37.664;2024-01-30T14:22:06;15.27;;;8.73;;
35693;SDS011;21812;55.536;37.664;2024-01-30T14:24:32;14.50;;;8.93;;
35693;SDS011;21812;55.536;37.664;2024-01-30T14:26:57;14.82;;;9.13;;
35693;SDS011;21812;55.536;37.664;2024-01-30T14:29:25;15.73;;;8.57;;
35693;SDS011;21812;55.536;37.664;2024-01-30T14:31:50;19.05;;;10.00;;